Time;durP1;ratioP1;P1;durP2;ratioP2;P2;SDS_P1;SDS_P2;PMS_P1;PMS_P2;Temp;Humidity;BMP_temperature;BMP_pressure;BME280_temperature;BME280_humidity;BME280_pressure;Samples;Min_cycle;Max_cycle;Signal;HPM_P1;HPM_P2
2023/04/24 00:01:14;;;;;;;0.70;0.70;;;;;;;;;;5002027;28;20505;-82
2023/04/24 00:03:41;;;;;;;0.60;0.52;;;;;;;;;;4980542;28;20037;-83
2023/04/24 00:06:07;;;;;;;1.60;0.60;;;;;;;;;;5003005;28;20022;-82
2023/04/24 00:08:33;;;;;;;1.50;0.77;;;;;;;;;;4983945;28;20390;-82
2023/04/24 00:10:59;;;;;;;3.50;0.75;;;;;;;;;;5014349;28;20030;-82
2023/04/24 00:13:24;;;;;;;1.40;0.63;;;;;;;;;;5002971;28;20026;-81
2023/04/24 00:15:49;;;;;;;0.82;0.80;;;;;;;;;;4984797;28;20053;-81
2023/04/24 00:18:15;;;;;;;0.52;0.52;;;;;;;;;;4993046;28;20030;-81
2023/04/24 00:20:40;;;;;;;1.13;1.02;;;;;;;;;;4977503;28;20030;-81
2023/04/24 00:23:06;;;;;;;2.15;0.70;;;;;;;;;;4993367;28;20041;-82
2023/04/24 00:25:31;;;;;;;0.40;0.40;;;;;;;;;;5004754;28;20084;-82
2023/04/24 00:27:57;;;;;;;0.75;0.63;;;;;;;;;;4980361;28;20026;-82
2023/04/24 00:30:22;;;;;;;2.72;0.90;;;;;;;;;;5000770;28;20037;-83
2023/04/24 00:32:47;;;;;;;3.42;0.70;;;;;;;;;;4986878;28;20024;-82
2023/04/24 00:35:13;;;;;;;0.80;0.63;;;;;;;;;;5004364;28;20041;-82
2023/04/24 00:37:38;;;;;;;1.15;0.70;;;;;;;;;;5001790;28;20038;-83
2023/04/24 00:40:04;;;;;;;0.52;0.52;;;;;;;;;;5001189;28;20033;-82
2023/04/24 00:42:29;;;;;;;0.77;0.60;;;;;;;;;;4991231;28;20084;-82
2023/04/24 00:44:56;;;;;;;2.28;0.60;;;;;;;;;;5005864;28;20037;-81
2023/04/24 00:47:22;;;;;;;1.40;0.60;;;;;;;;;;4988635;28;20034;-83
2023/04/24 00:49:47;;;;;;;0.95;0.63;;;;;;;;;;5007518;28;20041;-84
2023/04/24 00:52:17;;;;;;;0.75;0.75;;;;;;;;;;4984813;28;20149;-82
2023/04/24 00:54:45;;;;;;;1.10;0.57;;;;;;;;;;4981922;28;20056;-82
2023/04/24 00:57:10;;;;;;;1.02;0.70;;;;;;;;;;5003108;28;20033;-83
2023/04/24 00:59:36;;;;;;;0.85;0.80;;;;;;;;;;5007580;28;20045;-83
2023/04/24 01:02:01;;;;;;;0.50;0.50;;;;;;;;;;5000362;28;20529;-83
2023/04/24 01:04:27;;;;;;;1.60;0.70;;;;;;;;;;4998861;28;20034;-83
2023/04/24 01:06:54;;;;;;;0.68;0.68;;;;;;;;;;4984452;28;20116;-82
2023/04/24 01:09:22;;;;;;;3.45;0.60;;;;;;;;;;4998850;28;20165;-84
2023/04/24 01:11:48;;;;;;;2.75;0.50;;;;;;;;;;5000244;28;20041;-84
2023/04/24 01:14:13;;;;;;;0.50;0.50;;;;;;;;;;4998058;28;20034;-81
2023/04/24 01:16:39;;;;;;;0.93;0.77;;;;;;;;;;4980051;28;20030;-82
2023/04/24 01:19:06;;;;;;;0.55;0.40;;;;;;;;;;4997928;28;20611;-84
2023/04/24 01:21:35;;;;;;;0.55;0.55;;;;;;;;;;5003561;28;20018;-82
2023/04/24 01:24:01;;;;;;;1.05;0.60;;;;;;;;;;4996140;28;20026;-82
2023/04/24 01:26:27;;;;;;;0.47;0.47;;;;;;;;;;4975625;28;20026;-84
2023/04/24 01:28:53;;;;;;;0.40;0.40;;;;;;;;;;5002265;28;20148;-82
2023/04/24 01:31:18;;;;;;;0.93;0.50;;;;;;;;;;4987238;28;20038;-82
2023/04/24 01:33:44;;;;;;;0.73;0.63;;;;;;;;;;5003033;28;20030;-83
2023/04/24 01:36:11;;;;;;;0.75;0.75;;;;;;;;;;5002442;28;20041;-82
2023/04/24 01:38:37;;;;;;;0.52;0.52;;;;;;;;;;4980129;28;20481;-82
2023/04/24 01:41:02;;;;;;;0.50;0.50;;;;;;;;;;5015347;28;20026;-81
2023/04/24 01:43:28;;;;;;;0.98;0.60;;;;;;;;;;5004566;28;20677;-80
2023/04/24 01:45:53;;;;;;;0.73;0.47;;;;;;;;;;4996251;28;20030;-80
2023/04/24 01:48:19;;;;;;;0.98;0.68;;;;;;;;;;4993959;28;20033;-81
2023/04/24 01:50:44;;;;;;;2.40;0.80;;;;;;;;;;4995459;28;20025;-84
2023/04/24 01:53:11;;;;;;;1.73;0.77;;;;;;;;;;4997235;28;20057;-82
2023/04/24 01:55:36;;;;;;;0.75;0.50;;;;;;;;;;4996943;28;20649;-84
2023/04/24 01:58:02;;;;;;;0.45;0.45;;;;;;;;;;4982201;28;20030;-81
2023/04/24 02:00:27;;;;;;;1.10;0.50;;;;;;;;;;4984491;28;20475;-82
2023/04/24 02:02:52;;;;;;;1.00;0.73;;;;;;;;;;4989475;28;20025;-83
2023/04/24 02:05:18;;;;;;;1.98;0.73;;;;;;;;;;4993238;28;20031;-80
2023/04/24 02:07:43;;;;;;;1.92;0.60;;;;;;;;;;4981643;28;20025;-81
2023/04/24 02:10:09;;;;;;;1.13;0.50;;;;;;;;;;4998156;28;20098;-82
2023/04/24 02:12:35;;;;;;;0.47;0.47;;;;;;;;;;4997953;28;20054;-82
2023/04/24 02:15:00;;;;;;;1.20;0.70;;;;;;;;;;5004946;28;20038;-81
2023/04/24 02:17:26;;;;;;;0.47;0.47;;;;;;;;;;4996379;28;20022;-80
2023/04/24 02:19:51;;;;;;;1.05;0.90;;;;;;;;;;4993964;28;20042;-80
2023/04/24 02:22:16;;;;;;;0.80;0.70;;;;;;;;;;4993584;28;20523;-80
2023/04/24 02:24:42;;;;;;;1.70;0.60;;;;;;;;;;4984193;28;20065;-79
2023/04/24 02:27:07;;;;;;;1.00;0.60;;;;;;;;;;4997658;28;20018;-80
2023/04/24 02:29:32;;;;;;;0.60;0.60;;;;;;;;;;5015158;28;20041;-79
2023/04/24 02:31:58;;;;;;;0.63;0.60;;;;;;;;;;5013615;28;20026;-79
2023/04/24 02:34:23;;;;;;;0.50;0.50;;;;;;;;;;4995032;28;20054;-80
2023/04/24 02:36:49;;;;;;;0.50;0.50;;;;;;;;;;5003144;28;20056;-81
2023/04/24 02:39:16;;;;;;;0.38;0.38;;;;;;;;;;5010178;28;20029;-81
2023/04/24 02:41:42;;;;;;;3.25;0.68;;;;;;;;;;5006458;28;20026;-80
2023/04/24 02:44:07;;;;;;;0.50;0.50;;;;;;;;;;5003039;28;20493;-80
2023/04/24 02:46:32;;;;;;;2.13;0.70;;;;;;;;;;5006720;28;20069;-81
2023/04/24 02:48:58;;;;;;;0.65;0.50;;;;;;;;;;5008126;28;20050;-78
2023/04/24 02:51:23;;;;;;;1.60;0.75;;;;;;;;;;5002676;28;20041;-82
2023/04/24 02:53:48;;;;;;;0.70;0.70;;;;;;;;;;4982830;28;20030;-79
2023/04/24 02:56:14;;;;;;;1.42;0.43;;;;;;;;;;5011987;28;20022;-80
2023/04/24 02:58:39;;;;;;;1.05;0.80;;;;;;;;;;5011937;28;20027;-80
2023/04/24 03:01:05;;;;;;;1.00;0.80;;;;;;;;;;5005235;28;20458;-84
2023/04/24 03:03:30;;;;;;;1.60;0.60;;;;;;;;;;5011278;28;20038;-82
2023/04/24 03:05:56;;;;;;;2.47;0.77;;;;;;;;;;5006605;28;20022;-81
2023/04/24 03:08:22;;;;;;;0.57;0.57;;;;;;;;;;5000055;28;20022;-82
2023/04/24 03:10:47;;;;;;;2.28;0.50;;;;;;;;;;5006182;28;20105;-81
2023/04/24 03:13:13;;;;;;;1.40;0.70;;;;;;;;;;4982685;28;20037;-81
2023/04/24 03:15:38;;;;;;;0.77;0.70;;;;;;;;;;4999678;28;20027;-82
2023/04/24 03:18:03;;;;;;;0.47;0.47;;;;;;;;;;5007664;28;20061;-81
2023/04/24 03:20:29;;;;;;;1.33;0.75;;;;;;;;;;4983670;28;20023;-79
2023/04/24 03:22:54;;;;;;;0.60;0.60;;;;;;;;;;4998074;28;20026;-79
2023/04/24 03:25:20;;;;;;;1.95;1.20;;;;;;;;;;4999206;28;20084;-80
2023/04/24 03:27:45;;;;;;;0.60;0.50;;;;;;;;;;4996904;28;20030;-81
2023/04/24 03:30:11;;;;;;;1.65;0.68;;;;;;;;;;5006504;28;20700;-81
2023/04/24 03:32:36;;;;;;;0.65;0.60;;;;;;;;;;5000623;28;20034;-81
2023/04/24 03:35:03;;;;;;;1.23;0.90;;;;;;;;;;4998411;28;20109;-81
2023/04/24 03:37:28;;;;;;;2.33;1.30;;;;;;;;;;5009689;28;20026;-80
2023/04/24 03:39:53;;;;;;;2.08;1.38;;;;;;;;;;5004236;28;20096;-82
2023/04/24 03:42:20;;;;;;;3.50;2.00;;;;;;;;;;5006001;28;20077;-83
2023/04/24 03:44:45;;;;;;;5.28;2.70;;;;;;;;;;4998272;28;20037;-83
2023/04/24 03:47:10;;;;;;;3.35;2.40;;;;;;;;;;4996644;28;20030;-81
2023/04/24 03:49:36;;;;;;;4.18;2.65;;;;;;;;;;4998661;28;20023;-84
2023/04/24 03:52:01;;;;;;;1.80;1.55;;;;;;;;;;4996946;28;20022;-85
2023/04/24 03:54:26;;;;;;;1.73;0.73;;;;;;;;;;4997874;28;20041;-84
2023/04/24 03:56:52;;;;;;;1.23;0.50;;;;;;;;;;4997179;28;20113;-84
2023/04/24 03:59:17;;;;;;;3.08;0.90;;;;;;;;;;5003452;28;20101;-83
2023/04/24 04:01:42;;;;;;;1.02;0.85;;;;;;;;;;4996817;28;20042;-83
2023/04/24 04:04:08;;;;;;;2.25;0.77;;;;;;;;;;4993978;28;20094;-81
2023/04/24 04:06:33;;;;;;;0.60;0.60;;;;;;;;;;5008733;28;20026;-81
2023/04/24 04:08:59;;;;;;;0.75;0.70;;;;;;;;;;4996688;28;20451;-79
2023/04/24 04:11:25;;;;;;;1.65;0.90;;;;;;;;;;4987264;28;20029;-80
2023/04/24 04:13:50;;;;;;;0.70;0.70;;;;;;;;;;5009510;28;20030;-81
2023/04/24 04:16:17;;;;;;;0.50;0.50;;;;;;;;;;4999419;28;20437;-80
2023/04/24 04:18:43;;;;;;;2.88;1.25;;;;;;;;;;4980937;28;20594;-80
2023/04/24 04:21:08;;;;;;;0.52;0.52;;;;;;;;;;4995681;28;20049;-80
2023/04/24 04:23:33;;;;;;;4.15;0.55;;;;;;;;;;4996539;28;20109;-82
2023/04/24 04:25:59;;;;;;;0.40;0.40;;;;;;;;;;4978448;28;20072;-82
2023/04/24 04:28:24;;;;;;;2.72;0.73;;;;;;;;;;4982043;28;20096;-81
2023/04/24 04:30:53;;;;;;;0.60;0.60;;;;;;;;;;4978111;28;20501;-81
2023/04/24 04:33:19;;;;;;;0.60;0.60;;;;;;;;;;4977593;28;20022;-81
2023/04/24 04:35:48;;;;;;;2.28;0.60;;;;;;;;;;4977368;28;20065;-81
2023/04/24 04:38:14;;;;;;;1.02;0.95;;;;;;;;;;4995150;28;20018;-80
2023/04/24 04:40:40;;;;;;;1.52;0.90;;;;;;;;;;4995216;28;20030;-82
2023/04/24 04:43:06;;;;;;;0.68;0.68;;;;;;;;;;4993102;28;20128;-80
2023/04/24 04:45:32;;;;;;;1.10;1.00;;;;;;;;;;4978525;28;20033;-80
2023/04/24 04:48:00;;;;;;;1.10;0.98;;;;;;;;;;5003667;28;20105;-81
2023/04/24 04:50:26;;;;;;;2.40;1.35;;;;;;;;;;4984407;28;20037;-81
2023/04/24 04:52:52;;;;;;;1.52;0.70;;;;;;;;;;4977761;28;20022;-81
2023/04/24 04:55:18;;;;;;;0.88;0.85;;;;;;;;;;4978793;28;20029;-82
2023/04/24 04:57:43;;;;;;;0.70;0.70;;;;;;;;;;4978426;28;20056;-82
2023/04/24 05:00:10;;;;;;;2.70;1.20;;;;;;;;;;4986135;28;20026;-81
2023/04/24 05:02:35;;;;;;;0.90;0.70;;;;;;;;;;4977871;28;20383;-82
2023/04/24 05:05:01;;;;;;;3.25;1.10;;;;;;;;;;4995003;28;20029;-80
2023/04/24 05:07:26;;;;;;;0.88;0.88;;;;;;;;;;4977808;28;20030;-80
2023/04/24 05:09:52;;;;;;;0.90;0.90;;;;;;;;;;4980265;28;20025;-80
2023/04/24 05:12:17;;;;;;;0.98;0.98;;;;;;;;;;4977816;28;20117;-81
2023/04/24 05:14:42;;;;;;;1.77;1.20;;;;;;;;;;4993655;28;20030;-81
2023/04/24 05:17:08;;;;;;;3.90;1.20;;;;;;;;;;4981715;28;20026;-81
2023/04/24 05:19:35;;;;;;;1.60;1.10;;;;;;;;;;4976199;28;20138;-81
2023/04/24 05:22:03;;;;;;;0.70;0.70;;;;;;;;;;4984838;28;20368;-81
2023/04/24 05:24:28;;;;;;;1.27;0.88;;;;;;;;;;4986550;28;20027;-80
2023/04/24 05:26:53;;;;;;;2.40;1.10;;;;;;;;;;4980129;28;20026;-82
2023/04/24 05:29:19;;;;;;;2.45;1.00;;;;;;;;;;4999738;28;20386;-82
2023/04/24 05:31:44;;;;;;;1.13;1.02;;;;;;;;;;4997008;28;20041;-82
2023/04/24 05:34:10;;;;;;;1.15;0.95;;;;;;;;;;4986565;28;20504;-82
2023/04/24 05:36:35;;;;;;;0.82;0.82;;;;;;;;;;4995365;28;20454;-81
2023/04/24 05:39:00;;;;;;;1.95;1.20;;;;;;;;;;4986752;28;20025;-80
2023/04/24 05:41:26;;;;;;;2.90;1.20;;;;;;;;;;5010415;28;20035;-81
2023/04/24 05:43:51;;;;;;;1.65;1.08;;;;;;;;;;4978983;28;20026;-81
2023/04/24 05:46:16;;;;;;;3.17;1.05;;;;;;;;;;4971961;28;20121;-82
2023/04/24 05:48:42;;;;;;;1.25;1.00;;;;;;;;;;5002398;28;20034;-80
2023/04/24 05:51:09;;;;;;;0.82;0.82;;;;;;;;;;4999987;28;20026;-81
2023/04/24 05:53:34;;;;;;;1.10;0.90;;;;;;;;;;4979579;28;20024;-83
2023/04/24 05:55:59;;;;;;;7.63;1.10;;;;;;;;;;5007702;28;20034;-81
2023/04/24 05:58:25;;;;;;;1.02;0.80;;;;;;;;;;4997108;28;20038;-82
2023/04/24 06:00:51;;;;;;;0.75;0.75;;;;;;;;;;4995143;28;20022;-81
2023/04/24 06:03:16;;;;;;;1.02;0.93;;;;;;;;;;4982785;28;20061;-81
2023/04/24 06:05:41;;;;;;;1.60;1.00;;;;;;;;;;4977634;28;20073;-81
2023/04/24 06:08:06;;;;;;;1.40;1.17;;;;;;;;;;4979470;28;20537;-81
2023/04/24 06:10:32;;;;;;;1.30;1.20;;;;;;;;;;4988163;28;20443;-82
2023/04/24 06:13:00;;;;;;;1.65;0.90;;;;;;;;;;4986083;28;20030;-81
2023/04/24 06:15:27;;;;;;;1.17;1.15;;;;;;;;;;5005710;28;20021;-81
2023/04/24 06:17:53;;;;;;;1.33;1.20;;;;;;;;;;4988153;28;20467;-82
2023/04/24 06:20:19;;;;;;;1.60;1.35;;;;;;;;;;4992298;28;20029;-82
2023/04/24 06:22:44;;;;;;;1.77;1.42;;;;;;;;;;5004318;28;20030;-82
2023/04/24 06:25:10;;;;;;;1.55;1.33;;;;;;;;;;5002311;28;20029;-81
2023/04/24 06:27:35;;;;;;;1.23;1.08;;;;;;;;;;5006579;28;20041;-82
2023/04/24 06:30:01;;;;;;;1.95;1.48;;;;;;;;;;5012008;28;20025;-84
2023/04/24 06:32:27;;;;;;;1.55;1.40;;;;;;;;;;4990060;28;20077;-83
2023/04/24 06:34:52;;;;;;;2.28;1.55;;;;;;;;;;4988191;28;20029;-82
2023/04/24 06:37:20;;;;;;;1.55;1.42;;;;;;;;;;4985825;28;20069;-89
2023/04/24 06:39:45;;;;;;;2.05;1.30;;;;;;;;;;4984388;28;20117;-85
2023/04/24 06:42:11;;;;;;;1.23;1.15;;;;;;;;;;4985747;28;20049;-87
2023/04/24 06:44:40;;;;;;;1.45;1.00;;;;;;;;;;5010494;28;20030;-82
2023/04/24 06:47:07;;;;;;;1.30;1.20;;;;;;;;;;4988646;28;20018;-83
2023/04/24 06:49:33;;;;;;;3.13;1.58;;;;;;;;;;4999884;28;20029;-82
2023/04/24 06:51:58;;;;;;;1.50;1.30;;;;;;;;;;4989194;28;20025;-82
2023/04/24 06:54:23;;;;;;;8.95;1.33;;;;;;;;;;5003363;28;20030;-81
2023/04/24 06:56:50;;;;;;;2.40;1.23;;;;;;;;;;4986091;28;20399;-81
2023/04/24 06:59:15;;;;;;;1.95;1.20;;;;;;;;;;4996375;28;20022;-81
2023/04/24 07:01:41;;;;;;;1.70;1.10;;;;;;;;;;4996880;28;20029;-83
2023/04/24 07:04:06;;;;;;;1.20;1.10;;;;;;;;;;5018394;28;20018;-80
2023/04/24 07:06:32;;;;;;;1.38;1.20;;;;;;;;;;5024433;28;20033;-83
2023/04/24 07:08:57;;;;;;;1.60;1.50;;;;;;;;;;4998627;28;20025;-81
2023/04/24 07:11:23;;;;;;;1.13;0.90;;;;;;;;;;5013090;28;20038;-83
2023/04/24 07:13:49;;;;;;;1.38;1.20;;;;;;;;;;4996068;28;20034;-83
2023/04/24 07:16:15;;;;;;;1.92;1.20;;;;;;;;;;5002134;28;20168;-82
2023/04/24 07:18:40;;;;;;;1.02;1.00;;;;;;;;;;5000344;28;20037;-83
2023/04/24 07:21:06;;;;;;;1.42;1.33;;;;;;;;;;4986139;28;20026;-83
2023/04/24 07:23:32;;;;;;;1.08;1.00;;;;;;;;;;4987509;28;20018;-83
2023/04/24 07:25:57;;;;;;;5.07;1.10;;;;;;;;;;4980098;28;20488;-83
2023/04/24 07:28:22;;;;;;;1.73;1.40;;;;;;;;;;5003747;28;20427;-82
2023/04/24 07:30:48;;;;;;;1.35;1.10;;;;;;;;;;5004557;28;20105;-83
2023/04/24 07:33:13;;;;;;;1.02;1.00;;;;;;;;;;4986805;28;20022;-82
2023/04/24 07:35:39;;;;;;;1.30;1.10;;;;;;;;;;4987987;28;20109;-82
2023/04/24 07:38:04;;;;;;;1.52;1.20;;;;;;;;;;5007014;28;20019;-83
2023/04/24 07:40:30;;;;;;;1.20;1.10;;;;;;;;;;4988736;28;20259;-82
2023/04/24 07:42:55;;;;;;;1.50;1.35;;;;;;;;;;5000497;28;20363;-81
2023/04/24 07:45:20;;;;;;;1.48;1.10;;;;;;;;;;4987344;28;20404;-82
2023/04/24 07:47:46;;;;;;;1.13;0.93;;;;;;;;;;5015326;28;20014;-84
2023/04/24 07:50:12;;;;;;;1.00;0.90;;;;;;;;;;5020700;28;20038;-81
2023/04/24 07:52:38;;;;;;;2.60;0.73;;;;;;;;;;4989541;28;20018;-83
2023/04/24 07:55:04;;;;;;;4.45;1.23;;;;;;;;;;5000475;28;20076;-82
2023/04/24 07:57:30;;;;;;;1.20;1.05;;;;;;;;;;5006601;28;21181;-81
2023/04/24 07:59:55;;;;;;;0.80;0.80;;;;;;;;;;4992426;28;20037;-81
2023/04/24 08:02:25;;;;;;;1.00;1.00;;;;;;;;;;4979003;28;20767;-82
2023/04/24 08:04:51;;;;;;;0.80;0.80;;;;;;;;;;5012769;28;20034;-82
2023/04/24 08:07:17;;;;;;;2.03;1.00;;;;;;;;;;4986575;28;20496;-82
2023/04/24 08:09:42;;;;;;;4.50;1.35;;;;;;;;;;4991523;28;20037;-81
2023/04/24 08:12:07;;;;;;;2.53;1.20;;;;;;;;;;4980697;28;20019;-81
2023/04/24 08:14:33;;;;;;;2.03;1.13;;;;;;;;;;4989959;28;20026;-80
2023/04/24 08:17:00;;;;;;;0.70;0.70;;;;;;;;;;4996693;28;20033;-82
2023/04/24 08:19:25;;;;;;;0.85;0.77;;;;;;;;;;4997839;28;20162;-81
2023/04/24 08:21:51;;;;;;;1.00;1.00;;;;;;;;;;5013373;28;20151;-84
2023/04/24 08:24:16;;;;;;;0.43;0.43;;;;;;;;;;5009178;28;20064;-82
2023/04/24 08:26:42;;;;;;;1.60;0.98;;;;;;;;;;4989883;28;20021;-86
2023/04/24 08:29:08;;;;;;;1.33;1.10;;;;;;;;;;5000003;28;20010;-86
2023/04/24 08:31:33;;;;;;;4.88;0.90;;;;;;;;;;4986772;28;20034;-86
2023/04/24 08:33:59;;;;;;;3.30;0.85;;;;;;;;;;4981995;28;20512;-84
2023/04/24 08:36:25;;;;;;;2.55;1.33;;;;;;;;;;4984350;28;20042;-85
2023/04/24 08:38:51;;;;;;;1.30;0.95;;;;;;;;;;5005216;28;20508;-86
2023/04/24 08:41:18;;;;;;;1.67;1.05;;;;;;;;;;5000345;28;20109;-83
2023/04/24 08:43:46;;;;;;;2.00;1.10;;;;;;;;;;4988975;28;20502;-83
2023/04/24 08:46:13;;;;;;;1.35;1.17;;;;;;;;;;5010080;28;20040;-81
2023/04/24 08:48:39;;;;;;;3.50;1.02;;;;;;;;;;4993983;28;20102;-81
2023/04/24 08:51:07;;;;;;;1.20;1.05;;;;;;;;;;5003068;28;20044;-81
2023/04/24 08:53:33;;;;;;;1.35;0.70;;;;;;;;;;4985706;28;20087;-81
2023/04/24 08:55:58;;;;;;;0.85;0.85;;;;;;;;;;4997494;28;20521;-81
2023/04/24 08:58:27;;;;;;;2.95;1.05;;;;;;;;;;5013202;28;20395;-83
2023/04/24 09:00:57;;;;;;;0.70;0.70;;;;;;;;;;5015599;28;20106;-82
2023/04/24 09:03:23;;;;;;;1.75;0.90;;;;;;;;;;5012506;28;20032;-81
2023/04/24 09:05:50;;;;;;;1.02;0.90;;;;;;;;;;5015621;28;20080;-82
2023/04/24 09:08:19;;;;;;;0.80;0.77;;;;;;;;;;4999716;28;20513;-82
2023/04/24 09:10:45;;;;;;;1.58;0.95;;;;;;;;;;4993045;28;20037;-82
2023/04/24 09:13:11;;;;;;;0.93;0.80;;;;;;;;;;5005673;28;20046;-82
2023/04/24 09:15:38;;;;;;;1.05;0.98;;;;;;;;;;4998124;28;20505;-83
2023/04/24 09:18:04;;;;;;;1.30;0.85;;;;;;;;;;4997635;28;20022;-82
2023/04/24 09:20:30;;;;;;;1.08;1.08;;;;;;;;;;5012944;28;20030;-82
2023/04/24 09:22:57;;;;;;;1.65;0.70;;;;;;;;;;4990590;28;20685;-82
2023/04/24 09:25:25;;;;;;;1.95;0.90;;;;;;;;;;4996708;28;20486;-83
2023/04/24 09:27:54;;;;;;;0.80;0.80;;;;;;;;;;4997584;28;20058;-82
2023/04/24 09:30:23;;;;;;;0.73;0.73;;;;;;;;;;4964488;28;20046;-82
2023/04/24 09:32:48;;;;;;;1.05;0.93;;;;;;;;;;5005663;28;20029;-82
2023/04/24 09:35:15;;;;;;;1.48;1.00;;;;;;;;;;5003138;28;20049;-82
2023/04/24 09:37:46;;;;;;;1.20;1.10;;;;;;;;;;4989448;28;20029;-82
2023/04/24 09:40:12;;;;;;;2.17;1.17;;;;;;;;;;4982702;28;20026;-82
2023/04/24 09:42:38;;;;;;;0.90;0.90;;;;;;;;;;4996988;28;20041;-83
2023/04/24 09:45:08;;;;;;;1.20;1.13;;;;;;;;;;5002243;28;20030;-82
2023/04/24 09:47:38;;;;;;;1.13;0.90;;;;;;;;;;4985697;28;20042;-82
2023/04/24 09:50:17;;;;;;;3.42;0.90;;;;;;;;;;4994395;28;20038;-81
2023/04/24 09:52:55;;;;;;;3.97;1.15;;;;;;;;;;5005622;28;20037;-82
2023/04/24 09:55:21;;;;;;;0.70;0.70;;;;;;;;;;4991481;28;20098;-82
2023/04/24 09:57:55;;;;;;;1.02;0.73;;;;;;;;;;4979824;28;20494;-82
2023/04/24 10:00:25;;;;;;;0.68;0.68;;;;;;;;;;4989822;28;20092;-82
2023/04/24 10:02:56;;;;;;;2.20;1.00;;;;;;;;;;4985239;28;20032;-82
2023/04/24 10:05:29;;;;;;;2.25;0.88;;;;;;;;;;4989671;28;20024;-82
2023/04/24 10:07:57;;;;;;;1.38;0.90;;;;;;;;;;4976027;28;20027;-84
2023/04/24 10:10:22;;;;;;;1.13;1.02;;;;;;;;;;4988397;28;20407;-82
2023/04/24 10:12:48;;;;;;;0.80;0.80;;;;;;;;;;4988067;28;20037;-82
2023/04/24 10:15:16;;;;;;;1.40;0.90;;;;;;;;;;4995709;28;20057;-82
2023/04/24 10:17:42;;;;;;;0.95;0.90;;;;;;;;;;4987425;28;20025;-82
2023/04/24 10:20:08;;;;;;;1.80;0.90;;;;;;;;;;4993729;28;20084;-82
2023/04/24 10:22:33;;;;;;;0.77;0.77;;;;;;;;;;4999142;28;20040;-82
2023/04/24 10:24:59;;;;;;;0.73;0.73;;;;;;;;;;4994453;28;20027;-83
2023/04/24 10:27:26;;;;;;;1.00;0.90;;;;;;;;;;4978665;28;20073;-82
2023/04/24 10:29:53;;;;;;;1.27;1.17;;;;;;;;;;4978930;28;20018;-82
2023/04/24 10:32:18;;;;;;;2.42;1.15;;;;;;;;;;5003810;28;20023;-82
2023/04/24 10:34:44;;;;;;;4.35;0.93;;;;;;;;;;4987413;28;20060;-82
2023/04/24 10:37:10;;;;;;;1.50;1.40;;;;;;;;;;4983904;28;20056;-82
2023/04/24 10:39:37;;;;;;;0.90;0.90;;;;;;;;;;4991188;28;20030;-82
2023/04/24 10:42:15;;;;;;;2.85;1.40;;;;;;;;;;4996750;28;20108;-80
2023/04/24 10:44:40;;;;;;;3.03;1.08;;;;;;;;;;4997114;28;20076;-80
2023/04/24 10:47:12;;;;;;;1.35;0.73;;;;;;;;;;5011027;28;20010;-83
2023/04/24 10:49:38;;;;;;;1.48;1.00;;;;;;;;;;4994728;28;20022;-82
2023/04/24 10:52:07;;;;;;;0.88;0.88;;;;;;;;;;4998409;28;20036;-82
2023/04/24 10:54:45;;;;;;;1.10;1.00;;;;;;;;;;4979546;28;20033;-82
2023/04/24 10:57:22;;;;;;;1.02;0.95;;;;;;;;;;4990162;28;20069;-81
2023/04/24 11:00:08;;;;;;;1.30;1.15;;;;;;;;;;4991076;28;20095;-82
2023/04/24 11:02:39;;;;;;;1.85;1.10;;;;;;;;;;5015061;28;20029;-82
2023/04/24 11:05:06;;;;;;;0.57;0.57;;;;;;;;;;4991756;28;20025;-82
2023/04/24 11:08:10;;;;;;;0.90;0.90;;;;;;;;;;5006410;28;20111;-81
2023/04/24 11:10:38;;;;;;;0.80;0.80;;;;;;;;;;5006370;28;20125;-82
2023/04/24 11:13:04;;;;;;;0.80;0.80;;;;;;;;;;4990805;28;20440;-82
2023/04/24 11:15:29;;;;;;;1.05;1.00;;;;;;;;;;4993329;28;20149;-81
2023/04/24 11:17:55;;;;;;;0.77;0.77;;;;;;;;;;5003776;28;20028;-82
2023/04/24 11:20:23;;;;;;;0.88;0.88;;;;;;;;;;5010752;28;20034;-81
2023/04/24 11:22:52;;;;;;;2.38;0.88;;;;;;;;;;4991520;28;20034;-81
2023/04/24 11:25:18;;;;;;;1.20;1.10;;;;;;;;;;4993245;28;20030;-81
2023/04/24 11:27:46;;;;;;;1.67;1.05;;;;;;;;;;4994423;28;20402;-80
2023/04/24 11:30:11;;;;;;;1.63;1.50;;;;;;;;;;5008088;28;20034;-85
2023/04/24 11:32:42;;;;;;;1.30;1.20;;;;;;;;;;4993030;28;20108;-82
2023/04/24 11:35:18;;;;;;;1.10;1.05;;;;;;;;;;5000679;28;20030;-82
2023/04/24 11:37:46;;;;;;;1.00;1.00;;;;;;;;;;5005584;28;20151;-82
2023/04/24 11:40:15;;;;;;;2.30;1.00;;;;;;;;;;5008638;28;20132;-82
2023/04/24 11:42:42;;;;;;;1.65;1.02;;;;;;;;;;5009057;28;20045;-82
2023/04/24 11:45:16;;;;;;;2.60;0.90;;;;;;;;;;4996748;28;20105;-82
2023/04/24 11:47:43;;;;;;;0.80;0.80;;;;;;;;;;5006011;28;20533;-82
2023/04/24 11:50:12;;;;;;;2.38;1.17;;;;;;;;;;5005298;28;20034;-81
2023/04/24 11:52:40;;;;;;;0.70;0.70;;;;;;;;;;5025125;28;20562;-78
2023/04/24 11:55:14;;;;;;;1.00;1.00;;;;;;;;;;5017607;28;20471;-82
2023/04/24 11:57:44;;;;;;;1.00;0.90;;;;;;;;;;4991868;28;20022;-82
2023/04/24 12:00:16;;;;;;;1.13;1.02;;;;;;;;;;5016559;28;20026;-82
2023/04/24 12:02:41;;;;;;;;;;;;;;;;;;4995916;28;20022;-82
2023/04/24 12:05:07;;;;;;;1.00;1.00;;;;;;;;;;5000311;28;19932;-82
2023/04/24 12:07:42;;;;;;;0.98;0.88;;;;;;;;;;5004757;28;20109;-81
2023/04/24 12:10:09;;;;;;;1.98;0.93;;;;;;;;;;4991664;28;20060;-82
2023/04/24 12:12:34;;;;;;;1.00;0.90;;;;;;;;;;4987720;28;20492;-82
2023/04/24 12:15:06;;;;;;;3.30;1.20;;;;;;;;;;4993086;28;20118;-82
2023/04/24 12:17:33;;;;;;;2.33;1.10;;;;;;;;;;5016278;28;20026;-82
2023/04/24 12:20:03;;;;;;;0.90;0.90;;;;;;;;;;5005189;28;20077;-81
2023/04/24 12:22:45;;;;;;;2.10;1.25;;;;;;;;;;5015094;28;20034;-82
2023/04/24 12:25:11;;;;;;;0.80;0.75;;;;;;;;;;5000770;28;20022;-81
2023/04/24 12:27:36;;;;;;;1.10;0.82;;;;;;;;;;5001981;28;20132;-83
2023/04/24 12:30:05;;;;;;;0.80;0.80;;;;;;;;;;5005288;28;20045;-82
2023/04/24 12:32:31;;;;;;;1.65;1.00;;;;;;;;;;5002699;28;20022;-81
2023/04/24 12:34:57;;;;;;;0.80;0.80;;;;;;;;;;5023652;28;20018;-81
2023/04/24 12:37:31;;;;;;;1.67;1.17;;;;;;;;;;4997715;28;20517;-81
2023/04/24 12:40:08;;;;;;;2.45;1.20;;;;;;;;;;5004726;28;20020;-82
2023/04/24 12:42:35;;;;;;;2.60;0.85;;;;;;;;;;5021580;28;20070;-81
2023/04/24 12:45:05;;;;;;;4.95;0.80;;;;;;;;;;4993422;28;20399;-81
2023/04/24 12:47:32;;;;;;;1.42;1.10;;;;;;;;;;4989302;28;20041;-81
2023/04/24 12:49:57;;;;;;;3.22;1.10;;;;;;;;;;5004092;28;20037;-81
2023/04/24 12:52:24;;;;;;;1.60;1.50;;;;;;;;;;4989462;28;20037;-81
2023/04/24 12:54:50;;;;;;;1.00;1.00;;;;;;;;;;4982400;28;20509;-81
2023/04/24 12:57:17;;;;;;;0.60;0.60;;;;;;;;;;4991747;28;20033;-81
2023/04/24 12:59:42;;;;;;;1.33;1.20;;;;;;;;;;4989161;28;20038;-81
2023/04/24 13:02:09;;;;;;;1.58;1.08;;;;;;;;;;5006116;28;20113;-81
2023/04/24 13:04:36;;;;;;;0.95;0.95;;;;;;;;;;4993953;28;20537;-85
2023/04/24 13:07:02;;;;;;;1.60;1.10;;;;;;;;;;4973616;28;20029;-81
2023/04/24 13:09:27;;;;;;;0.90;0.90;;;;;;;;;;5005133;28;20030;-80
2023/04/24 13:11:52;;;;;;;2.08;1.00;;;;;;;;;;5004184;28;20042;-81
2023/04/24 13:14:18;;;;;;;2.25;1.30;;;;;;;;;;5009447;28;20429;-81
2023/04/24 13:16:43;;;;;;;2.05;1.10;;;;;;;;;;4992097;28;20029;-82
2023/04/24 13:19:08;;;;;;;1.27;1.17;;;;;;;;;;4998366;28;20052;-80
2023/04/24 13:21:34;;;;;;;1.85;1.38;;;;;;;;;;4988665;28;20089;-82
2023/04/24 13:23:59;;;;;;;1.48;1.30;;;;;;;;;;5000971;28;20084;-82
2023/04/24 13:26:25;;;;;;;1.10;1.10;;;;;;;;;;4981305;28;20118;-81
2023/04/24 13:28:50;;;;;;;1.30;1.20;;;;;;;;;;4979940;28;20025;-82
2023/04/24 13:31:16;;;;;;;1.73;1.60;;;;;;;;;;4979128;28;20054;-81
2023/04/24 13:33:41;;;;;;;1.75;1.30;;;;;;;;;;4999405;28;20375;-82
2023/04/24 13:36:06;;;;;;;1.60;1.50;;;;;;;;;;4981973;28;20022;-82
2023/04/24 13:38:32;;;;;;;2.97;1.33;;;;;;;;;;4998655;28;20088;-80
2023/04/24 13:40:57;;;;;;;3.20;1.52;;;;;;;;;;5007717;28;20064;-82
2023/04/24 13:43:22;;;;;;;1.30;1.20;;;;;;;;;;4992853;28;20506;-82
2023/04/24 13:45:48;;;;;;;3.60;1.52;;;;;;;;;;5009380;28;20101;-81
2023/04/24 13:48:15;;;;;;;1.58;1.25;;;;;;;;;;4986321;28;20487;-82
2023/04/24 13:50:44;;;;;;;1.63;1.35;;;;;;;;;;4982020;28;20113;-82
2023/04/24 13:53:09;;;;;;;1.15;1.15;;;;;;;;;;4997511;28;20533;-82
2023/04/24 13:55:35;;;;;;;1.10;1.00;;;;;;;;;;4997704;28;20026;-80
2023/04/24 13:58:01;;;;;;;1.05;0.95;;;;;;;;;;5006229;28;20449;-81
2023/04/24 14:00:27;;;;;;;1.88;1.10;;;;;;;;;;5007723;28;20049;-83
2023/04/24 14:02:52;;;;;;;1.10;1.00;;;;;;;;;;4983300;28;20690;-83
2023/04/24 14:05:18;;;;;;;1.77;1.27;;;;;;;;;;4983995;28;20027;-82
2023/04/24 14:07:43;;;;;;;1.20;1.10;;;;;;;;;;4985597;28;20541;-81
2023/04/24 14:10:09;;;;;;;1.23;1.15;;;;;;;;;;5009574;28;20026;-81
2023/04/24 14:12:34;;;;;;;1.42;1.33;;;;;;;;;;4997962;28;20030;-82
2023/04/24 14:15:01;;;;;;;1.55;1.13;;;;;;;;;;5002792;28;20040;-82
2023/04/24 14:17:26;;;;;;;1.35;1.23;;;;;;;;;;4982756;28;20037;-82
2023/04/24 14:19:52;;;;;;;2.35;1.13;;;;;;;;;;4997654;28;20030;-81
2023/04/24 14:22:17;;;;;;;1.30;1.20;;;;;;;;;;4982273;28;20030;-81
2023/04/24 14:24:43;;;;;;;1.02;1.02;;;;;;;;;;4979031;28;20038;-82
2023/04/24 14:27:08;;;;;;;5.95;1.48;;;;;;;;;;4980628;28;20026;-81
2023/04/24 14:29:33;;;;;;;2.17;1.55;;;;;;;;;;5001201;28;20038;-82
2023/04/24 14:31:59;;;;;;;1.20;1.10;;;;;;;;;;5004004;28;20083;-82
2023/04/24 14:34:24;;;;;;;1.52;1.35;;;;;;;;;;4982991;28;20132;-83
2023/04/24 14:36:50;;;;;;;1.30;1.20;;;;;;;;;;5000293;28;20129;-85
2023/04/24 14:39:15;;;;;;;2.30;1.25;;;;;;;;;;4985800;28;20026;-84